createdAt,value
2019-05-26T00:01:11.272Z,20.73
2019-05-26T00:03:43.411Z,20.90
2019-05-26T00:06:13.611Z,21.18
2019-05-26T00:08:44.226Z,21.26
2019-05-26T00:11:15.961Z,21.42
2019-05-26T00:13:46.110Z,21.38
2019-05-26T00:16:16.301Z,21.28
2019-05-26T00:18:47.150Z,21.53
2019-05-26T00:21:17.395Z,21.31
2019-05-26T00:23:49.872Z,21.56
2019-05-26T00:26:21.106Z,21.27
2019-05-26T00:28:51.931Z,20.93
2019-05-26T00:31:22.122Z,21.21
2019-05-26T00:33:52.679Z,20.68
2019-05-26T00:36:24.229Z,21.09
2019-05-26T00:38:55.370Z,21.09
2019-05-26T00:41:25.783Z,20.43
2019-05-26T00:43:56.349Z,20.85
2019-05-26T00:46:26.731Z,20.85
2019-05-26T00:48:57.362Z,20.20
2019-05-26T00:51:27.584Z,20.20
2019-05-26T00:53:57.765Z,20.60
2019-05-26T00:56:28.475Z,20.96
2019-05-26T00:58:59.570Z,20.96
2019-05-26T01:01:30.770Z,20.36
2019-05-26T01:04:01.264Z,20.63
2019-05-26T01:06:31.442Z,20.47
2019-05-26T01:09:06.022Z,20.47
2019-05-26T01:11:38.371Z,20.67
2019-05-26T01:14:08.729Z,20.67
2019-05-26T01:16:41.200Z,19.92
2019-05-26T01:19:12.784Z,19.76
2019-05-26T01:21:43.398Z,19.49
2019-05-26T01:24:15.683Z,19.89
2019-05-26T01:26:45.884Z,19.16
2019-05-26T01:29:16.097Z,19.28
2019-05-26T01:31:46.745Z,19.82
2019-05-26T01:34:18.087Z,19.84
2019-05-26T01:36:49.460Z,19.65
2019-05-26T01:39:19.625Z,19.68
2019-05-26T01:41:49.840Z,19.79
2019-05-26T01:44:20.783Z,20.05
2019-05-26T01:46:50.975Z,19.32
2019-05-26T01:49:22.218Z,19.61
2019-05-26T01:51:53.402Z,19.98
2019-05-26T01:54:25.385Z,19.83
2019-05-26T01:56:55.985Z,20.30
2019-05-26T01:59:26.174Z,20.22
2019-05-26T02:01:58.763Z,20.08
2019-05-26T02:04:29.773Z,20.10
2019-05-26T02:06:59.955Z,19.58
2019-05-26T02:09:32.234Z,19.82
2019-05-26T02:12:04.298Z,19.99
2019-05-26T02:14:35.399Z,20.21
2019-05-26T02:17:06.768Z,19.86
2019-05-26T02:19:37.607Z,20.26
2019-05-26T02:22:07.892Z,20.15
2019-05-26T02:24:38.072Z,20.07
2019-05-26T02:27:08.256Z,19.99
2019-05-26T02:29:38.990Z,20.47
2019-05-26T02:32:10.981Z,19.51
2019-05-26T02:34:41.740Z,19.81
2019-05-26T02:37:13.679Z,19.82
2019-05-26T02:39:44.853Z,19.71
2019-05-26T02:42:16.586Z,19.89
2019-05-26T02:44:46.824Z,19.97
2019-05-26T02:47:17.005Z,20.20
2019-05-26T02:49:47.177Z,20.13
2019-05-26T02:52:17.959Z,19.33
2019-05-26T02:54:48.140Z,19.47
2019-05-26T02:57:18.311Z,19.46
2019-05-26T02:59:49.508Z,19.71
2019-05-26T03:02:20.218Z,19.84
2019-05-26T03:04:50.892Z,19.49
2019-05-26T03:07:23.490Z,19.58
2019-05-26T03:09:57.057Z,19.71
2019-05-26T03:12:31.430Z,19.81
2019-05-26T03:15:03.135Z,19.52
2019-05-26T03:17:35.465Z,19.25
2019-05-26T03:20:06.765Z,19.29
2019-05-26T03:22:41.961Z,19.71
2019-05-26T03:25:13.248Z,19.34
2019-05-26T03:27:43.371Z,19.23
2019-05-26T03:30:13.560Z,19.54
2019-05-26T03:32:47.173Z,19.71
2019-05-26T03:35:17.348Z,19.63
2019-05-26T03:37:53.128Z,19.32
2019-05-26T03:40:23.282Z,18.99
2019-05-26T03:42:54.843Z,19.15
2019-05-26T03:45:33.180Z,19.43
2019-05-26T03:48:03.476Z,19.31
2019-05-26T03:50:34.559Z,19.39
2019-05-26T03:53:07.516Z,19.49
2019-05-26T03:55:37.814Z,19.42
2019-05-26T03:58:08.075Z,19.30
2019-05-26T04:00:38.345Z,19.50
2019-05-26T04:03:08.940Z,19.52
2019-05-26T04:05:39.122Z,19.59
2019-05-26T04:08:09.328Z,19.75
2019-05-26T04:10:40.882Z,19.99
2019-05-26T04:13:13.362Z,18.92
2019-05-26T04:15:43.660Z,19.11
2019-05-26T04:18:14.932Z,19.65
2019-05-26T04:20:46.071Z,19.47
2019-05-26T04:23:16.800Z,19.75
2019-05-26T04:25:47.815Z,19.91
2019-05-26T04:28:17.985Z,19.73
2019-05-26T04:30:48.185Z,19.98
2019-05-26T04:33:20.876Z,19.80
2019-05-26T04:35:51.182Z,19.83
2019-05-26T04:38:22.600Z,19.94
2019-05-26T04:40:53.865Z,19.67
2019-05-26T04:43:25.043Z,19.87
2019-05-26T04:45:55.780Z,19.76
2019-05-26T04:48:29.091Z,20.08
2019-05-26T04:50:59.383Z,20.07
2019-05-26T04:53:29.576Z,19.89
2019-05-26T04:56:00.608Z,20.02
2019-05-26T04:58:31.530Z,19.95
2019-05-26T05:01:03.719Z,20.16
2019-05-26T05:03:35.008Z,19.55
2019-05-26T05:06:08.101Z,20.00
2019-05-26T05:08:38.738Z,19.81
2019-05-26T05:11:08.919Z,19.85
2019-05-26T05:13:39.102Z,19.91
2019-05-26T05:16:11.596Z,19.80
2019-05-26T05:18:42.205Z,19.53
2019-05-26T05:21:12.422Z,19.79
2019-05-26T05:23:42.620Z,19.76
2019-05-26T05:26:12.914Z,19.30
2019-05-26T05:28:43.612Z,19.61
2019-05-26T05:31:14.421Z,19.69
2019-05-26T05:33:45.772Z,19.89
2019-05-26T05:36:16.064Z,20.14
2019-05-26T05:38:47.780Z,20.03
2019-05-26T05:41:18.089Z,20.20
2019-05-26T05:43:48.355Z,20.33
2019-05-26T05:46:18.538Z,20.53
2019-05-26T05:48:48.697Z,20.28
2019-05-26T05:51:18.917Z,20.48
2019-05-26T05:53:49.844Z,20.48
2019-05-26T05:56:20.128Z,20.48
2019-05-26T05:58:51.786Z,20.61
2019-05-26T06:01:21.994Z,20.70
2019-05-26T06:03:52.575Z,20.90
2019-05-26T06:06:24.454Z,21.01
2019-05-26T06:08:54.712Z,20.79
2019-05-26T06:11:24.878Z,20.64
2019-05-26T06:13:55.931Z,20.13
2019-05-26T06:16:26.581Z,20.77
2019-05-26T06:18:57.134Z,20.77
2019-05-26T06:21:29.277Z,20.98
2019-05-26T06:24:00.291Z,21.08
2019-05-26T06:26:30.985Z,20.58
2019-05-26T06:29:01.451Z,20.94
2019-05-26T06:31:32.140Z,20.90
2019-05-26T06:34:02.790Z,21.02
2019-05-26T06:36:34.610Z,21.22
2019-05-26T06:39:08.301Z,21.36
2019-05-26T06:41:38.509Z,21.43
2019-05-26T06:44:11.297Z,21.41
2019-05-26T06:46:41.496Z,21.45
2019-05-26T06:49:12.119Z,21.60
2019-05-26T06:51:44.437Z,21.71
2019-05-26T06:54:15.179Z,21.61
2019-05-26T06:56:45.700Z,21.82
2019-05-26T06:59:15.892Z,21.52
2019-05-26T07:01:47.362Z,21.11
2019-05-26T07:04:19.384Z,21.46
2019-05-26T07:06:52.351Z,21.91
2019-05-26T07:09:22.504Z,22.26
2019-05-26T07:11:59.126Z,22.20
2019-05-26T07:14:25.396Z,22.19
2019-05-26T07:16:56.015Z,22.03
2019-05-26T07:19:26.204Z,21.77
2019-05-26T07:21:57.684Z,22.14
2019-05-26T07:24:29.407Z,21.54
2019-05-26T07:26:59.885Z,22.07
2019-05-26T07:29:31.376Z,22.50
2019-05-26T07:32:10.236Z,22.49
2019-05-26T07:34:40.535Z,22.61
2019-05-26T07:37:11.081Z,22.38
2019-05-26T07:39:46.644Z,22.64
2019-05-26T07:42:17.773Z,22.53
2019-05-26T07:44:48.333Z,22.86
2019-05-26T07:47:18.526Z,22.78
2019-05-26T07:49:48.709Z,22.75
2019-05-26T07:52:19.417Z,23.24
2019-05-26T07:54:50.422Z,22.55
2019-05-26T07:57:21.755Z,22.97
2019-05-26T07:59:52.439Z,23.39
2019-05-26T08:02:23.141Z,23.63
2019-05-26T08:04:55.759Z,23.74
2019-05-26T08:07:25.899Z,22.51
2019-05-26T08:09:56.418Z,22.88
2019-05-26T08:12:30.453Z,23.04
2019-05-26T08:15:00.254Z,21.27
2019-05-26T08:17:33.819Z,22.10
2019-05-26T08:20:04.563Z,22.19
2019-05-26T08:22:34.715Z,22.92
2019-05-26T08:25:06.155Z,22.99
2019-05-26T08:27:37.267Z,23.35
2019-05-26T08:30:09.572Z,23.44
2019-05-26T08:32:39.765Z,23.72
2019-05-26T08:35:10.710Z,22.58
2019-05-26T08:37:42.094Z,21.83
2019-05-26T08:40:20.988Z,22.10
2019-05-26T08:42:52.452Z,22.54
2019-05-26T08:45:24.832Z,23.52
2019-05-26T08:47:55.718Z,23.68
2019-05-26T08:50:26.385Z,23.90
2019-05-26T08:52:58.009Z,24.02
2019-05-26T08:55:29.204Z,24.03
2019-05-26T08:57:59.817Z,24.51
2019-05-26T09:00:31.291Z,24.54
2019-05-26T09:03:01.534Z,24.96
2019-05-26T09:05:31.658Z,24.65
2019-05-26T09:08:01.943Z,23.60
2019-05-26T09:10:32.552Z,24.67
2019-05-26T09:13:02.822Z,23.95
2019-05-26T09:15:33.021Z,24.48
2019-05-26T09:18:03.646Z,24.33
2019-05-26T09:20:35.178Z,24.50
2019-05-26T09:23:05.951Z,25.13
2019-05-26T09:25:36.601Z,25.37
2019-05-26T09:28:06.788Z,25.36
2019-05-26T09:30:38.564Z,25.58
2019-05-26T09:33:09.282Z,25.77
2019-05-26T09:35:41.962Z,26.07
2019-05-26T09:38:13.190Z,25.33
2019-05-26T09:40:44.322Z,25.59
2019-05-26T09:43:16.690Z,25.75
2019-05-26T09:45:47.638Z,23.97
2019-05-26T09:48:17.818Z,23.56
2019-05-26T09:50:48.193Z,24.30
2019-05-26T09:53:21.165Z,25.34
2019-05-26T09:55:57.078Z,24.33
2019-05-26T09:58:28.164Z,25.28
2019-05-26T10:01:00.403Z,25.42
2019-05-26T10:03:31.086Z,26.35
2019-05-26T10:06:02.281Z,27.01
2019-05-26T10:08:32.878Z,27.12
2019-05-26T10:11:03.591Z,27.36
2019-05-26T10:13:33.771Z,27.01
2019-05-26T10:16:06.184Z,27.17
2019-05-26T10:18:36.652Z,27.38
2019-05-26T10:21:07.775Z,27.41
2019-05-26T10:23:37.995Z,27.62
2019-05-26T10:26:10.002Z,27.36
2019-05-26T10:28:40.517Z,27.26
2019-05-26T10:31:10.672Z,26.94
2019-05-26T10:33:42.995Z,27.05
2019-05-26T10:36:13.680Z,27.28
2019-05-26T10:38:45.656Z,27.38
2019-05-26T10:41:16.968Z,26.79
2019-05-26T10:43:48.022Z,27.16
2019-05-26T10:46:18.746Z,26.42
2019-05-26T10:48:51.672Z,26.64
2019-05-26T10:51:28.069Z,26.39
2019-05-26T10:53:59.649Z,26.76
2019-05-26T10:56:30.724Z,26.73
2019-05-26T10:59:01.023Z,26.94
2019-05-26T11:01:31.180Z,26.45
2019-05-26T11:04:02.482Z,26.88
2019-05-26T11:06:33.125Z,26.07
2019-05-26T11:09:06.916Z,26.49
2019-05-26T11:11:37.238Z,25.45
2019-05-26T11:14:07.895Z,25.76
2019-05-26T11:16:38.120Z,26.38
2019-05-26T11:19:08.773Z,26.03
2019-05-26T11:21:38.974Z,26.36
2019-05-26T11:24:12.589Z,26.80
2019-05-26T11:26:42.762Z,26.82
2019-05-26T11:29:12.934Z,26.61
2019-05-26T11:31:43.177Z,26.54
2019-05-26T11:34:13.810Z,25.17
2019-05-26T11:36:43.999Z,24.99
2019-05-26T11:39:14.779Z,25.65
2019-05-26T11:41:54.683Z,25.67
2019-05-26T11:44:19.629Z,26.16
2019-05-26T11:46:50.262Z,25.67
2019-05-26T11:49:20.577Z,25.66
2019-05-26T11:51:51.897Z,25.68
2019-05-26T11:54:22.766Z,25.62
2019-05-26T11:56:55.025Z,25.79
2019-05-26T11:59:26.941Z,26.67
2019-05-26T12:01:57.499Z,25.58
2019-05-26T12:04:29.172Z,26.41
2019-05-26T12:06:59.811Z,27.03
2019-05-26T12:09:31.388Z,26.93
2019-05-26T12:12:01.582Z,27.14
2019-05-26T12:14:35.627Z,27.24
2019-05-26T12:17:07.238Z,27.02
2019-05-26T12:19:37.447Z,27.52
2019-05-26T12:22:11.271Z,27.25
2019-05-26T12:24:42.756Z,27.70
2019-05-26T12:27:13.357Z,27.65
2019-05-26T12:29:43.577Z,27.29
2019-05-26T12:32:13.766Z,27.38
2019-05-26T12:34:44.415Z,26.84
2019-05-26T12:37:16.193Z,27.22
2019-05-26T12:39:49.258Z,25.92
2019-05-26T12:42:19.515Z,26.94
2019-05-26T12:44:50.239Z,27.30
2019-05-26T12:47:20.958Z,27.20
2019-05-26T12:49:51.127Z,26.76
2019-05-26T12:52:21.665Z,26.38
2019-05-26T12:54:54.764Z,27.26
2019-05-26T12:57:25.470Z,27.76
2019-05-26T12:59:55.638Z,27.54
2019-05-26T13:02:25.867Z,27.59
2019-05-26T13:04:55.998Z,27.45
2019-05-26T13:07:26.598Z,27.66
2019-05-26T13:09:57.970Z,27.85
2019-05-26T13:12:31.425Z,27.61
2019-05-26T13:15:05.980Z,28.01
2019-05-26T13:17:34.951Z,26.96
2019-05-26T13:20:06.822Z,27.48
2019-05-26T13:22:37.470Z,26.12
2019-05-26T13:25:09.206Z,27.33
2019-05-26T13:27:39.363Z,27.71
2019-05-26T13:30:10.763Z,26.38
2019-05-26T13:32:40.947Z,25.58
2019-05-26T13:35:13.059Z,26.70
2019-05-26T13:37:47.422Z,27.41
2019-05-26T13:40:19.044Z,27.84
2019-05-26T13:42:50.745Z,28.04
2019-05-26T13:45:23.134Z,28.29
2019-05-26T13:47:57.232Z,28.58
2019-05-26T13:50:29.456Z,28.39
2019-05-26T13:53:00.587Z,28.41
2019-05-26T13:55:33.903Z,28.74
2019-05-26T13:58:05.474Z,28.91
2019-05-26T14:00:35.670Z,28.91
2019-05-26T14:03:06.045Z,28.74
2019-05-26T14:05:36.344Z,28.67
2019-05-26T14:08:06.981Z,28.86
2019-05-26T14:10:39.151Z,27.97
2019-05-26T14:13:09.643Z,27.36
2019-05-26T14:15:39.795Z,27.61
2019-05-26T14:18:13.923Z,27.55
2019-05-26T14:20:44.921Z,27.32
2019-05-26T14:23:15.182Z,27.30
2019-05-26T14:25:45.888Z,26.49
2019-05-26T14:28:20.446Z,27.17
2019-05-26T14:30:51.716Z,27.20
2019-05-26T14:33:21.980Z,27.11
2019-05-26T14:35:52.470Z,27.13
2019-05-26T14:38:23.182Z,27.20
2019-05-26T14:40:53.373Z,27.01
2019-05-26T14:43:24.865Z,26.35
2019-05-26T14:45:58.245Z,26.90
2019-05-26T14:48:30.405Z,27.12
2019-05-26T14:51:00.528Z,26.52
2019-05-26T14:53:31.965Z,25.60
2019-05-26T14:56:03.780Z,26.45
2019-05-26T14:58:34.977Z,25.02
2019-05-26T15:01:08.544Z,25.83
2019-05-26T15:03:39.267Z,25.81
2019-05-26T15:06:09.735Z,26.05
2019-05-26T15:08:40.411Z,25.10
2019-05-26T15:11:10.600Z,25.83
2019-05-26T15:13:42.372Z,25.99
2019-05-26T15:16:13.056Z,25.24
2019-05-26T15:18:44.281Z,24.40
2019-05-26T15:21:17.884Z,24.40
2019-05-26T15:23:47.914Z,25.17
2019-05-26T15:26:20.243Z,25.12
2019-05-26T15:28:52.853Z,25.27
2019-05-26T15:31:25.612Z,25.65
2019-05-26T15:33:55.876Z,25.36
2019-05-26T15:36:27.047Z,25.85
2019-05-26T15:38:58.778Z,26.15
2019-05-26T15:41:29.353Z,25.11
2019-05-26T15:44:04.837Z,25.22
2019-05-26T15:46:35.307Z,24.36
2019-05-26T15:49:10.328Z,25.01
2019-05-26T15:51:41.520Z,25.28
2019-05-26T15:54:12.270Z,25.55
2019-05-26T15:56:42.687Z,25.21
2019-05-26T15:59:13.371Z,25.77
2019-05-26T16:01:45.830Z,25.02
2019-05-26T16:04:16.123Z,25.82
2019-05-26T16:06:46.291Z,26.36
2019-05-26T16:09:16.473Z,26.29
2019-05-26T16:11:47.069Z,25.82
2019-05-26T16:14:17.719Z,24.65
2019-05-26T16:16:53.790Z,25.05
2019-05-26T16:19:25.986Z,24.99
2019-05-26T16:21:56.625Z,25.17
2019-05-26T16:24:28.349Z,24.18
2019-05-26T16:27:05.041Z,23.70
2019-05-26T16:29:32.142Z,24.63
2019-05-26T16:32:03.192Z,25.23
2019-05-26T16:34:33.792Z,25.33
2019-05-26T16:37:04.370Z,24.59
2019-05-26T16:39:37.359Z,23.53
2019-05-26T16:42:06.431Z,24.20
2019-05-26T16:44:38.345Z,25.08
2019-05-26T16:47:08.545Z,25.06
2019-05-26T16:49:43.269Z,25.62
2019-05-26T16:52:17.190Z,25.82
2019-05-26T16:54:48.776Z,25.71
2019-05-26T16:57:19.821Z,24.61
2019-05-26T16:59:50.112Z,24.02
2019-05-26T17:02:20.279Z,24.00
2019-05-26T17:04:53.202Z,25.19
2019-05-26T17:07:28.621Z,25.44
2019-05-26T17:10:01.563Z,24.63
2019-05-26T17:12:32.081Z,25.30
2019-05-26T17:15:02.724Z,25.60
2019-05-26T17:17:34.714Z,24.52
2019-05-26T17:20:08.045Z,24.85
2019-05-26T17:22:38.214Z,25.33
2019-05-26T17:25:09.616Z,25.55
2019-05-26T17:27:40.578Z,25.39
2019-05-26T17:30:12.069Z,24.69
2019-05-26T17:32:43.734Z,24.89
2019-05-26T17:35:18.943Z,24.77
2019-05-26T17:37:50.026Z,25.00
2019-05-26T17:40:23.719Z,25.04
2019-05-26T17:42:54.451Z,24.73
2019-05-26T17:45:26.313Z,24.68
2019-05-26T17:47:58.066Z,24.61
2019-05-26T17:50:28.727Z,24.00
2019-05-26T17:53:02.492Z,24.57
2019-05-26T17:55:32.679Z,25.06
2019-05-26T17:58:04.736Z,25.53
2019-05-26T18:00:35.007Z,24.34
2019-05-26T18:03:05.247Z,24.07
2019-05-26T18:05:35.473Z,24.85
2019-05-26T18:08:06.420Z,24.08
2019-05-26T18:10:37.191Z,24.79
2019-05-26T18:13:09.694Z,24.54
2019-05-26T18:15:42.187Z,25.31
2019-05-26T18:18:13.001Z,25.33
2019-05-26T18:20:50.889Z,25.05
2019-05-26T18:23:22.766Z,24.69
2019-05-26T18:25:53.255Z,23.73
2019-05-26T18:28:26.493Z,23.20
2019-05-26T18:30:57.582Z,24.20
2019-05-26T18:33:27.815Z,25.15
2019-05-26T18:35:57.900Z,24.03
2019-05-26T18:38:28.716Z,24.06
2019-05-26T18:41:00.115Z,24.01
2019-05-26T18:43:30.757Z,23.81
2019-05-26T18:46:03.365Z,24.51
2019-05-26T18:48:33.638Z,24.51
2019-05-26T18:51:06.142Z,25.04
2019-05-26T18:53:36.483Z,24.63
2019-05-26T18:56:07.392Z,23.91
2019-05-26T18:58:37.651Z,24.65
2019-05-26T19:01:07.997Z,25.29
2019-05-26T19:03:40.709Z,24.34
2019-05-26T19:06:11.371Z,24.80
2019-05-26T19:08:42.682Z,25.09
2019-05-26T19:11:17.684Z,24.87
2019-05-26T19:13:48.805Z,25.17
2019-05-26T19:16:20.421Z,25.19
2019-05-26T19:18:50.539Z,25.00
2019-05-26T19:21:20.751Z,25.56
2019-05-26T19:23:50.969Z,25.72
2019-05-26T19:26:23.229Z,25.01
2019-05-26T19:28:54.861Z,25.36
2019-05-26T19:31:25.767Z,25.08
2019-05-26T19:33:55.980Z,24.64
2019-05-26T19:36:26.309Z,24.69
2019-05-26T19:38:58.064Z,25.31
2019-05-26T19:41:28.426Z,25.40
2019-05-26T19:44:01.217Z,25.64
2019-05-26T19:46:32.853Z,24.86
2019-05-26T19:49:06.578Z,25.40
2019-05-26T19:51:38.674Z,25.50
2019-05-26T19:54:09.281Z,24.82
2019-05-26T19:56:41.132Z,25.67
2019-05-26T19:59:11.495Z,25.31
2019-05-26T20:01:43.895Z,25.40
2019-05-26T20:04:14.132Z,25.48
2019-05-26T20:06:44.739Z,25.79
2019-05-26T20:09:22.048Z,25.67
2019-05-26T20:11:56.841Z,25.71
2019-05-26T20:14:30.422Z,25.51
2019-05-26T20:17:01.739Z,25.71
2019-05-26T20:19:33.011Z,25.21
2019-05-26T20:22:03.306Z,25.68
2019-05-26T20:24:33.509Z,25.49
2019-05-26T20:27:03.776Z,24.93
2019-05-26T20:29:35.339Z,25.13
2019-05-26T20:32:09.237Z,25.29
2019-05-26T20:34:42.734Z,24.92
2019-05-26T20:37:12.958Z,25.03
2019-05-26T20:39:43.161Z,25.17
2019-05-26T20:42:13.928Z,24.63
2019-05-26T20:44:47.863Z,24.79
2019-05-26T20:47:19.378Z,24.89
2019-05-26T20:49:49.635Z,24.67
2019-05-26T20:52:20.274Z,24.89
2019-05-26T20:54:50.465Z,24.90
2019-05-26T20:57:23.936Z,24.92
2019-05-26T20:59:54.099Z,24.91
2019-05-26T21:02:29.205Z,25.15
2019-05-26T21:05:01.279Z,24.68
2019-05-26T21:07:32.443Z,24.96
2019-05-26T21:10:02.638Z,25.03
2019-05-26T21:12:33.513Z,25.19
2019-05-26T21:15:04.065Z,25.18
2019-05-26T21:17:37.326Z,24.97
2019-05-26T21:20:09.993Z,25.00
2019-05-26T21:22:40.810Z,24.83
2019-05-26T21:25:22.715Z,24.34
2019-05-26T21:27:54.573Z,24.46
2019-05-26T21:30:24.780Z,24.36
2019-05-26T21:32:58.013Z,23.88
2019-05-26T21:35:28.206Z,23.86
2019-05-26T21:37:58.746Z,24.04
2019-05-26T21:40:30.561Z,23.72
2019-05-26T21:43:01.193Z,23.79
2019-05-26T21:45:33.699Z,23.94
2019-05-26T21:48:05.127Z,23.80
2019-05-26T21:50:36.212Z,23.71
2019-05-26T21:53:07.008Z,23.73
2019-05-26T21:55:38.538Z,23.10
2019-05-26T21:58:09.580Z,23.42
2019-05-26T22:00:42.971Z,23.27
2019-05-26T22:03:14.691Z,23.38
2019-05-26T22:05:51.420Z,23.37
2019-05-26T22:08:22.833Z,23.14
2019-05-26T22:10:54.977Z,23.51
2019-05-26T22:13:25.570Z,23.22
2019-05-26T22:15:57.360Z,22.19
2019-05-26T22:18:29.070Z,22.34
2019-05-26T22:20:59.273Z,22.60
2019-05-26T22:23:38.229Z,22.73
2019-05-26T22:26:08.993Z,22.22
2019-05-26T22:28:40.013Z,21.45
2019-05-26T22:31:10.596Z,21.59
2019-05-26T22:33:43.331Z,22.11
2019-05-26T22:36:14.030Z,22.40
2019-05-26T22:38:46.338Z,22.58
2019-05-26T22:41:16.969Z,21.95
2019-05-26T22:43:48.546Z,21.24
2019-05-26T22:46:19.363Z,21.85
2019-05-26T22:48:52.912Z,22.15
2019-05-26T22:51:23.400Z,22.34
2019-05-26T22:53:56.792Z,21.90
2019-05-26T22:56:28.419Z,21.94
2019-05-26T22:58:58.703Z,21.87
2019-05-26T23:01:30.891Z,21.96
2019-05-26T23:04:03.376Z,21.39
2019-05-26T23:06:34.965Z,21.66
2019-05-26T23:09:06.425Z,22.23
2019-05-26T23:11:36.614Z,22.53
2019-05-26T23:14:07.741Z,22.68
2019-05-26T23:16:39.926Z,22.68
2019-05-26T23:19:19.376Z,22.25
2019-05-26T23:21:43.253Z,22.53
2019-05-26T23:24:17.490Z,21.89
2019-05-26T23:26:49.533Z,21.57
2019-05-26T23:29:22.238Z,22.09
2019-05-26T23:31:54.740Z,22.54
2019-05-26T23:34:28.048Z,21.78
2019-05-26T23:37:02.876Z,21.62
2019-05-26T23:39:36.720Z,21.78
2019-05-26T23:42:07.149Z,21.57
2019-05-26T23:44:38.769Z,21.48
2019-05-26T23:47:08.956Z,21.09
2019-05-26T23:49:42.040Z,21.19
2019-05-26T23:52:12.247Z,21.96
2019-05-26T23:54:43.424Z,21.86
2019-05-26T23:57:13.921Z,21.91
2019-05-26T23:59:45.225Z,22.17
